Aérodrome :
LOGIN :

S'inscrire | Disclaimer

   EN    FR    IT 

 










Légende :    VFR   VFR Marginal   IFR   IFR Intensif   IFR Très Intensif
Visi : 
Plafond : 
>= 8 km
>= 3000ft
5 à 8 km
1000 à 3000 ft
1500m à 5 km
500 à 1000 ft
800 à 1500m
200 à 500 ft
< 800m
< 200 ft
Symboles :   Orages  Brouillard  Fortes neiges  Fortes précipitations  Vent > 20 kt
SIGMETs :   Divers  Orages  Givrage  Turbulence  Onde Orograph.  Cendres Volcan.






- Altitude de l'aérodrome : 18 ft
- Code IATA : AJA


LFKJ - Ajaccio

DERNIER METAR :
  • 140030Z AUTO 04005KT 9999 BKN043 09/06 Q1006 NOSIG

METARs EXPIRÉS :
  • 140000Z AUTO 08004KT 030V190 9999 BKN042 BKN240 09/06 Q1006 NOSIG
  • 132330Z AUTO 05005KT CAVOK 09/06 Q1006 NOSIG
  • 132300Z AUTO 03004KT 350V070 CAVOK 09/06 Q1006 NOSIG
  • 132230Z AUTO 03004KT CAVOK 10/06 Q1006 NOSIG
  • 132200Z AUTO 07006KT 040V100 CAVOK 10/06 Q1006 NOSIG

TAF TAF LFKJ
Valide du 13 à 21h jusqu'au 14 à 21h UTC


132000Z 1321/1421 05005KT 9999 BKN035
BECMG 1413/1415 14010KT BKN030 FEW035CB
TEMPO 1418/1421 14015G25KT 2000 TSRA BKN014 BKN030CB
ATIS : +33 4 95 23 59 85



MET'MAP, la Météo Aéronautique d'un coup d'oeil ! - Copyright ORBIFLY Décembre 2007 - Disclaimer

ORBIFLY MET'MAP TEAM :

Programmation & Développement : Alexandra Zaïnal
Conception & Développement : Baudouin d'Aumeries
Co-Programmation & Développement : Marc-Olivier Méhu
Soutien technique & logistique : Manuel Goepfert

Contact : metmap@orbifly.com




SOURCES & CREDITS :

   NOAA